createdAt,value
2022-11-18T00:00:02.428Z,87.38
2022-11-18T00:01:02.352Z,87.47
2022-11-18T00:02:02.265Z,87.32
2022-11-18T00:03:02.190Z,86.94
2022-11-18T00:04:02.125Z,87.13
2022-11-18T00:05:02.029Z,87.32
2022-11-18T00:06:01.938Z,86.57
2022-11-18T00:07:01.898Z,86.18
2022-11-18T00:08:01.779Z,86.09
2022-11-18T00:09:01.699Z,85.42
2022-11-18T00:10:01.610Z,84.85
2022-11-18T00:11:01.535Z,84.38
2022-11-18T00:12:01.451Z,84.85
2022-11-18T00:13:01.374Z,84.38
2022-11-18T00:14:01.282Z,83.90
2022-11-18T00:15:01.210Z,83.71
2022-11-18T00:16:01.118Z,83.81
2022-11-18T00:17:01.057Z,84.09
2022-11-18T00:18:00.958Z,84.00
2022-11-18T00:19:00.884Z,84.28
2022-11-18T00:20:00.885Z,84.76
2022-11-18T00:21:00.719Z,84.95
2022-11-18T00:22:00.629Z,84.66
2022-11-18T00:23:00.555Z,84.66
2022-11-18T00:24:00.470Z,84.47
2022-11-18T00:25:00.390Z,84.38
2022-11-18T00:26:00.302Z,84.47
2022-11-18T00:27:00.227Z,84.85
2022-11-18T00:28:00.139Z,84.66
2022-11-18T00:29:00.074Z,84.47
2022-11-18T00:29:59.976Z,84.56
2022-11-18T00:30:59.900Z,85.04
2022-11-18T00:31:59.813Z,84.76
2022-11-18T00:32:59.740Z,84.85
2022-11-18T00:33:59.650Z,84.85
2022-11-18T00:34:59.574Z,84.85
2022-11-18T00:35:59.508Z,85.04
2022-11-18T00:36:59.414Z,84.66
2022-11-18T00:37:59.325Z,84.38
2022-11-18T00:38:59.248Z,85.14
2022-11-18T00:39:59.159Z,85.04
2022-11-18T00:40:59.085Z,84.85
2022-11-18T00:41:58.993Z,85.24
2022-11-18T00:42:59.125Z,85.24
2022-11-18T00:43:58.833Z,85.52
2022-11-18T00:44:58.758Z,85.28
2022-11-18T00:45:58.670Z,85.66
2022-11-18T00:46:58.593Z,85.86
2022-11-18T00:47:58.506Z,85.76
2022-11-18T00:48:58.429Z,85.57
2022-11-18T00:49:58.343Z,85.95
2022-11-18T00:50:58.266Z,85.95
2022-11-18T00:51:58.200Z,85.86
2022-11-18T00:52:58.103Z,85.86
2022-11-18T00:53:58.015Z,85.19
2022-11-18T00:54:57.941Z,85.10
2022-11-18T00:55:57.849Z,84.91
2022-11-18T00:56:57.813Z,85.10
2022-11-18T00:57:57.688Z,84.91
2022-11-18T00:58:57.612Z,85.10
2022-11-18T00:59:57.525Z,85.00
2022-11-18T01:00:57.521Z,84.52
2022-11-18T01:01:57.361Z,84.72
2022-11-18T01:02:57.285Z,84.72
2022-11-18T01:03:57.194Z,84.81
2022-11-18T01:04:57.329Z,84.72
2022-11-18T01:05:57.038Z,84.91
2022-11-18T01:06:56.997Z,85.10
2022-11-18T01:07:56.892Z,84.52
2022-11-18T01:08:56.797Z,84.43
2022-11-18T01:09:56.707Z,84.00
2022-11-18T01:10:56.633Z,83.95
2022-11-18T01:11:56.541Z,84.24
2022-11-18T01:12:56.468Z,83.90
2022-11-18T01:13:56.391Z,83.95
2022-11-18T01:14:56.305Z,83.62
2022-11-18T01:15:56.216Z,83.52
2022-11-18T01:16:56.155Z,83.33
2022-11-18T01:17:56.052Z,83.42
2022-11-18T01:18:55.979Z,83.33
2022-11-18T01:19:55.888Z,83.42
2022-11-18T01:20:55.819Z,83.42
2022-11-18T01:21:55.725Z,83.04
2022-11-18T01:22:55.651Z,83.33
2022-11-18T01:23:55.593Z,82.86
2022-11-18T01:24:55.489Z,83.14
2022-11-18T01:25:55.398Z,82.76
2022-11-18T01:26:55.324Z,82.86
2022-11-18T01:27:55.235Z,82.38
2022-11-18T01:28:55.161Z,82.48
2022-11-18T01:29:55.072Z,82.38
2022-11-18T01:30:54.996Z,82.19
2022-11-18T01:32:22.855Z,81.71
2022-11-18T01:32:54.835Z,81.90
2022-11-18T01:33:54.747Z,82.48
2022-11-18T01:34:54.672Z,81.43
2022-11-18T01:35:54.584Z,81.52
2022-11-18T01:36:54.508Z,81.43
2022-11-18T01:37:54.435Z,81.52
2022-11-18T01:38:54.344Z,82.48
2022-11-18T01:39:54.411Z,81.33
2022-11-18T01:40:54.187Z,81.71
2022-11-18T01:41:54.093Z,81.62
2022-11-18T01:42:54.020Z,81.81
2022-11-18T01:43:53.931Z,81.90
2022-11-18T01:44:53.863Z,82.00
2022-11-18T01:45:53.769Z,81.71
2022-11-18T01:46:53.704Z,82.19
2022-11-18T01:47:53.608Z,82.38
2022-11-18T01:48:53.547Z,82.19
2022-11-18T01:49:53.447Z,82.19
2022-11-18T01:51:01.583Z,82.19
2022-11-18T01:51:53.285Z,82.19
2022-11-18T01:52:53.206Z,82.19
2022-11-18T01:53:53.120Z,82.38
2022-11-18T01:54:53.041Z,82.38
2022-11-18T01:55:52.978Z,82.48
2022-11-18T01:56:52.881Z,82.38
2022-11-18T01:57:52.795Z,82.86
2022-11-18T01:58:52.718Z,82.28
2022-11-18T01:59:52.639Z,82.48
2022-11-18T02:00:52.660Z,82.38
2022-11-18T02:01:58.232Z,82.38
2022-11-18T02:02:52.401Z,82.28
2022-11-18T02:03:52.308Z,82.28
2022-11-18T02:04:52.231Z,82.19
2022-11-18T02:05:52.144Z,81.43
2022-11-18T02:06:52.069Z,81.71
2022-11-18T02:07:51.979Z,81.56
2022-11-18T02:08:51.908Z,81.90
2022-11-18T02:09:51.817Z,81.90
2022-11-18T02:10:51.744Z,81.56
2022-11-18T02:11:51.775Z,81.71
2022-11-18T02:12:51.581Z,81.56
2022-11-18T02:13:51.493Z,81.71
2022-11-18T02:14:51.419Z,81.85
2022-11-18T02:15:51.333Z,81.66
2022-11-18T02:16:51.256Z,81.95
2022-11-18T02:17:51.166Z,81.95
2022-11-18T02:18:51.095Z,81.66
2022-11-18T02:19:51.006Z,81.85
2022-11-18T02:20:50.930Z,81.47
2022-11-18T02:21:50.843Z,81.56
2022-11-18T02:22:50.872Z,81.56
2022-11-18T02:23:50.680Z,81.76
2022-11-18T02:24:50.610Z,81.47
2022-11-18T02:25:50.517Z,82.23
2022-11-18T02:26:50.450Z,82.23
2022-11-18T02:27:50.377Z,82.14
2022-11-18T02:28:50.284Z,81.95
2022-11-18T02:29:50.347Z,82.04
2022-11-18T02:30:50.120Z,82.32
2022-11-18T02:31:50.034Z,81.76
2022-11-18T02:32:49.957Z,81.66
2022-11-18T02:33:49.871Z,82.14
2022-11-18T02:34:49.811Z,82.28
2022-11-18T02:35:49.709Z,82.04
2022-11-18T02:36:49.634Z,82.32
2022-11-18T02:37:49.547Z,82.32
2022-11-18T02:38:49.473Z,82.23
2022-11-18T02:39:49.384Z,81.56
2022-11-18T02:40:49.316Z,81.56
2022-11-18T02:41:49.223Z,81.85
2022-11-18T02:42:49.138Z,81.85
2022-11-18T02:43:49.087Z,81.47
2022-11-18T02:44:48.977Z,81.85
2022-11-18T02:45:48.904Z,81.56
2022-11-18T02:46:48.816Z,81.56
2022-11-18T02:47:48.745Z,81.76
2022-11-18T02:48:48.656Z,81.66
2022-11-18T02:49:48.631Z,81.56
2022-11-18T02:50:48.493Z,81.47
2022-11-18T02:51:48.420Z,81.47
2022-11-18T02:52:48.332Z,81.56
2022-11-18T02:53:48.256Z,81.85
2022-11-18T02:54:48.168Z,81.66
2022-11-18T02:55:48.094Z,82.04
2022-11-18T02:56:48.004Z,82.04
2022-11-18T02:57:47.934Z,81.95
2022-11-18T02:58:47.843Z,81.85
2022-11-18T02:59:47.792Z,81.85
2022-11-18T03:00:47.681Z,81.76
2022-11-18T03:01:47.727Z,81.85
2022-11-18T03:02:47.520Z,81.76
2022-11-18T03:03:47.446Z,81.85
2022-11-18T03:04:47.380Z,81.85
2022-11-18T03:05:47.285Z,81.85
2022-11-18T03:06:47.196Z,81.66
2022-11-18T03:07:47.122Z,81.66
2022-11-18T03:08:47.088Z,81.95
2022-11-18T03:09:46.961Z,81.66
2022-11-18T03:10:46.871Z,81.56
2022-11-18T03:11:46.799Z,81.66
2022-11-18T03:12:46.722Z,81.76
2022-11-18T03:13:46.636Z,81.76
2022-11-18T03:14:46.547Z,81.85
2022-11-18T03:15:46.492Z,81.56
2022-11-18T03:16:46.387Z,81.66
2022-11-18T03:17:46.316Z,82.14
2022-11-18T03:18:46.222Z,82.23
2022-11-18T03:19:46.150Z,81.85
2022-11-18T03:20:46.062Z,82.23
2022-11-18T03:21:45.992Z,82.32
2022-11-18T03:22:45.903Z,82.32
2022-11-18T03:23:45.828Z,82.42
2022-11-18T03:24:45.739Z,81.85
2022-11-18T03:25:45.916Z,82.23
2022-11-18T03:26:45.576Z,82.23
2022-11-18T03:27:45.504Z,82.23
2022-11-18T03:28:45.465Z,82.23
2022-11-18T03:29:45.343Z,82.14
2022-11-18T03:30:45.256Z,82.04
2022-11-18T03:31:45.200Z,82.14
2022-11-18T03:32:45.091Z,82.23
2022-11-18T03:33:45.017Z,82.23
2022-11-18T03:34:44.928Z,82.32
2022-11-18T03:35:44.857Z,82.42
2022-11-18T03:36:47.735Z,82.51
2022-11-18T03:37:44.744Z,82.19
2022-11-18T03:38:44.605Z,82.70
2022-11-18T03:39:44.534Z,82.51
2022-11-18T03:40:44.441Z,82.23
2022-11-18T03:41:44.370Z,82.04
2022-11-18T03:42:44.281Z,81.47
2022-11-18T03:43:44.208Z,81.76
2022-11-18T03:44:47.161Z,82.14
2022-11-18T03:45:44.045Z,82.14
2022-11-18T03:46:43.956Z,82.42
2022-11-18T03:47:43.902Z,82.14
2022-11-18T03:48:44.044Z,82.42
2022-11-18T03:49:43.722Z,82.51
2022-11-18T03:50:43.633Z,82.32
2022-11-18T03:51:43.561Z,82.32
2022-11-18T03:52:43.472Z,82.90
2022-11-18T03:53:43.398Z,82.90
2022-11-18T03:54:43.308Z,82.99
2022-11-18T03:55:43.232Z,83.09
2022-11-18T03:56:43.147Z,83.47
2022-11-18T03:57:43.071Z,84.04
2022-11-18T03:58:42.984Z,83.65
2022-11-18T03:59:42.912Z,83.94
2022-11-18T04:00:42.821Z,83.85
2022-11-18T04:01:42.812Z,84.23
2022-11-18T04:02:42.666Z,84.80
2022-11-18T04:03:42.607Z,84.89
2022-11-18T04:04:42.496Z,84.52
2022-11-18T04:05:42.422Z,85.18
2022-11-18T04:06:42.334Z,85.47
2022-11-18T04:07:42.322Z,85.56
2022-11-18T04:08:42.172Z,85.56
2022-11-18T04:09:42.100Z,85.94
2022-11-18T04:10:42.012Z,85.75
2022-11-18T04:11:41.940Z,85.56
2022-11-18T04:12:41.847Z,85.75
2022-11-18T04:13:41.777Z,85.75
2022-11-18T04:14:41.685Z,85.85
2022-11-18T04:15:41.613Z,86.04
2022-11-18T04:16:41.528Z,86.51
2022-11-18T04:17:41.451Z,87.18
2022-11-18T04:18:41.363Z,87.27
2022-11-18T04:19:41.308Z,86.99
2022-11-18T04:20:41.201Z,87.18
2022-11-18T04:21:41.176Z,87.08
2022-11-18T04:22:41.035Z,86.99
2022-11-18T04:23:40.963Z,87.37
2022-11-18T04:24:40.877Z,86.61
2022-11-18T04:25:40.801Z,87.08
2022-11-18T04:26:40.711Z,87.18
2022-11-18T04:27:40.645Z,87.18
2022-11-18T04:28:40.552Z,86.70
2022-11-18T04:29:40.479Z,86.61
2022-11-18T04:30:40.389Z,86.61
2022-11-18T04:31:40.316Z,86.61
2022-11-18T04:32:40.229Z,86.42
2022-11-18T04:33:40.155Z,86.61
2022-11-18T04:34:40.067Z,86.51
2022-11-18T04:35:40.013Z,86.51
2022-11-18T04:36:39.903Z,86.61
2022-11-18T04:37:39.829Z,86.70
2022-11-18T04:38:39.740Z,86.51
2022-11-18T04:39:39.668Z,86.70
2022-11-18T04:40:39.581Z,86.51
2022-11-18T04:41:39.509Z,86.42
2022-11-18T04:42:39.419Z,86.51
2022-11-18T04:43:39.346Z,86.61
2022-11-18T04:44:39.258Z,86.61
2022-11-18T04:45:39.184Z,86.51
2022-11-18T04:46:39.093Z,85.94
2022-11-18T04:47:39.023Z,86.42
2022-11-18T04:48:38.935Z,86.61
2022-11-18T04:49:38.860Z,86.51
2022-11-18T04:50:38.774Z,86.04
2022-11-18T04:51:38.716Z,85.66
2022-11-18T04:52:38.610Z,86.13
2022-11-18T04:53:38.536Z,86.22
2022-11-18T04:54:38.449Z,86.04
2022-11-18T04:55:38.373Z,86.13
2022-11-18T04:56:38.287Z,85.37
2022-11-18T04:57:38.213Z,85.85
2022-11-18T04:58:38.122Z,85.47
2022-11-18T04:59:38.051Z,85.37
2022-11-18T05:00:37.964Z,85.18
2022-11-18T05:01:37.961Z,84.89
2022-11-18T05:02:37.805Z,84.52
2022-11-18T05:03:37.726Z,84.61
2022-11-18T05:04:37.641Z,84.89
2022-11-18T05:05:37.565Z,84.89
2022-11-18T05:06:37.478Z,84.61
2022-11-18T05:07:37.561Z,84.61
2022-11-18T05:08:37.316Z,84.52
2022-11-18T05:09:37.244Z,84.33
2022-11-18T05:10:37.153Z,83.94
2022-11-18T05:11:37.086Z,84.13
2022-11-18T05:12:36.994Z,83.85
2022-11-18T05:13:36.921Z,83.75
2022-11-18T05:14:36.829Z,83.37
2022-11-18T05:15:36.757Z,83.56
2022-11-18T05:16:36.670Z,83.47
2022-11-18T05:17:36.595Z,83.56
2022-11-18T05:18:36.507Z,82.90
2022-11-18T05:19:36.435Z,83.18
2022-11-18T05:20:41.368Z,82.90
2022-11-18T05:21:36.273Z,83.09
2022-11-18T05:22:36.182Z,83.09
2022-11-18T05:23:36.133Z,82.99
2022-11-18T05:24:36.023Z,82.90
2022-11-18T05:25:35.949Z,82.90
2022-11-18T05:26:35.859Z,83.18
2022-11-18T05:27:35.789Z,83.09
2022-11-18T05:28:35.701Z,82.80
2022-11-18T05:29:35.624Z,82.99
2022-11-18T05:30:35.686Z,83.09
2022-11-18T05:31:35.463Z,82.99
2022-11-18T05:32:35.374Z,82.99
2022-11-18T05:33:35.303Z,82.90
2022-11-18T05:34:35.211Z,82.70
2022-11-18T05:35:35.140Z,83.18
2022-11-18T05:36:35.052Z,83.09
2022-11-18T05:37:34.981Z,82.90
2022-11-18T05:38:34.890Z,82.99
2022-11-18T05:39:34.838Z,82.90
2022-11-18T05:40:34.728Z,82.90
2022-11-18T05:41:34.656Z,82.32
2022-11-18T05:42:34.718Z,82.90
2022-11-18T05:43:34.493Z,82.99
2022-11-18T05:44:34.405Z,82.90
2022-11-18T05:45:34.331Z,82.90
2022-11-18T05:46:34.266Z,83.09
2022-11-18T05:47:34.321Z,82.61
2022-11-18T05:48:34.083Z,82.42
2022-11-18T05:49:34.010Z,82.23
2022-11-18T05:50:33.919Z,82.61
2022-11-18T05:51:33.846Z,82.51
2022-11-18T05:52:33.760Z,82.42
2022-11-18T05:53:33.687Z,82.04
2022-11-18T05:54:33.597Z,82.14
2022-11-18T05:55:33.555Z,81.85
2022-11-18T05:56:33.436Z,82.23
2022-11-18T05:57:33.361Z,82.42
2022-11-18T05:58:33.323Z,82.32
2022-11-18T05:59:33.202Z,82.51
2022-11-18T06:00:33.212Z,82.23
2022-11-18T06:01:33.041Z,82.42
2022-11-18T06:02:32.999Z,82.42
2022-11-18T06:03:32.937Z,82.32
2022-11-18T06:04:32.792Z,82.04
2022-11-18T06:05:32.722Z,82.23
2022-11-18T06:06:32.631Z,82.70
2022-11-18T06:07:32.654Z,82.61
2022-11-18T06:08:32.468Z,82.42
2022-11-18T06:09:32.394Z,82.23
2022-11-18T06:10:32.306Z,83.09
2022-11-18T06:11:32.251Z,82.70
2022-11-18T06:12:32.143Z,82.80
2022-11-18T06:13:32.071Z,82.70
2022-11-18T06:14:31.988Z,82.80
2022-11-18T06:15:31.907Z,82.80
2022-11-18T06:16:35.288Z,82.90
2022-11-18T06:17:31.749Z,82.99
2022-11-18T06:18:31.660Z,83.04
2022-11-18T06:19:31.584Z,82.99
2022-11-18T06:20:31.498Z,83.09
2022-11-18T06:21:31.426Z,82.70
2022-11-18T06:22:31.333Z,82.61
2022-11-18T06:23:31.364Z,83.09
2022-11-18T06:24:31.173Z,83.14
2022-11-18T06:25:31.102Z,83.09
2022-11-18T06:26:31.013Z,82.76
2022-11-18T06:27:30.959Z,82.70
2022-11-18T06:28:30.849Z,82.61
2022-11-18T06:29:31.101Z,82.57
2022-11-18T06:30:30.687Z,82.09
2022-11-18T06:31:30.619Z,82.51
2022-11-18T06:32:30.528Z,82.57
2022-11-18T06:33:30.452Z,82.00
2022-11-18T06:34:30.364Z,82.23
2022-11-18T06:35:30.293Z,82.32
2022-11-18T06:36:30.202Z,82.14
2022-11-18T06:37:30.126Z,82.28
2022-11-18T06:38:30.040Z,82.00
2022-11-18T06:39:29.967Z,82.19
2022-11-18T06:40:34.503Z,81.62
2022-11-18T06:41:29.807Z,81.56
2022-11-18T06:42:29.715Z,81.47
2022-11-18T06:43:29.664Z,81.76
2022-11-18T06:44:29.552Z,81.56
2022-11-18T06:45:29.607Z,81.47
2022-11-18T06:46:29.591Z,81.28
2022-11-18T06:47:29.317Z,81.85
2022-11-18T06:48:29.231Z,81.56
2022-11-18T06:49:29.159Z,81.85
2022-11-18T06:50:29.070Z,81.76
2022-11-18T06:51:29.003Z,81.95
2022-11-18T06:52:28.904Z,81.85
2022-11-18T06:53:28.833Z,81.85
2022-11-18T06:54:28.745Z,80.90
2022-11-18T06:55:28.673Z,81.18
2022-11-18T06:56:28.581Z,80.52
2022-11-18T06:57:28.511Z,80.52
2022-11-18T06:58:28.424Z,80.04
2022-11-18T06:59:28.425Z,80.04
2022-11-18T07:00:28.267Z,80.42
2022-11-18T07:01:28.229Z,80.52
2022-11-18T07:02:28.104Z,80.04
2022-11-18T07:03:28.126Z,80.52
2022-11-18T07:04:27.941Z,80.61
2022-11-18T07:05:27.854Z,80.52
2022-11-18T07:06:27.779Z,80.61
2022-11-18T07:07:27.774Z,81.09
2022-11-18T07:08:27.617Z,81.37
2022-11-18T07:09:27.528Z,81.18
2022-11-18T07:10:27.588Z,81.09
2022-11-18T07:11:27.366Z,80.99
2022-11-18T07:12:27.292Z,81.18
2022-11-18T07:13:27.203Z,81.85
2022-11-18T07:14:27.133Z,82.51
2022-11-18T07:15:27.069Z,83.18
2022-11-18T07:16:26.968Z,83.47
2022-11-18T07:17:27.199Z,83.65
2022-11-18T07:18:26.807Z,83.75
2022-11-18T07:19:30.213Z,84.23
2022-11-18T07:20:26.646Z,84.04
2022-11-18T07:21:26.660Z,84.42
2022-11-18T07:22:26.481Z,84.80
2022-11-18T07:23:26.394Z,84.42
2022-11-18T07:24:26.322Z,85.37
2022-11-18T07:25:26.233Z,85.75
2022-11-18T07:26:26.158Z,86.51
2022-11-18T07:27:26.070Z,86.90
2022-11-18T07:28:25.996Z,87.75
2022-11-18T07:29:25.907Z,87.37
2022-11-18T07:30:25.836Z,87.75
2022-11-18T07:31:25.764Z,87.56
2022-11-18T07:32:25.673Z,86.90
2022-11-18T07:33:25.586Z,87.37
2022-11-18T07:34:25.512Z,87.46
2022-11-18T07:35:25.424Z,87.46
2022-11-18T07:36:25.350Z,87.75
2022-11-18T07:37:25.261Z,87.46
2022-11-18T07:38:25.186Z,87.94
2022-11-18T07:39:25.099Z,88.23
2022-11-18T07:40:25.027Z,88.70
2022-11-18T07:41:24.936Z,88.79
2022-11-18T07:42:24.861Z,89.37
2022-11-18T07:43:25.174Z,89.75
2022-11-18T07:44:24.699Z,89.84
2022-11-18T07:45:24.613Z,89.94
2022-11-18T07:46:24.537Z,90.99
2022-11-18T07:47:24.467Z,91.75
2022-11-18T07:48:24.375Z,93.84
2022-11-18T07:49:24.289Z,94.89
2022-11-18T07:50:24.212Z,95.60
2022-11-18T07:51:24.127Z,95.94
2022-11-18T07:52:24.055Z,96.70
2022-11-18T07:53:23.963Z,96.60
2022-11-18T07:54:23.889Z,95.65
2022-11-18T07:55:26.835Z,96.60
2022-11-18T07:56:23.727Z,97.46
2022-11-18T07:57:23.640Z,97.36
2022-11-18T07:58:23.563Z,98.32
2022-11-18T07:59:23.477Z,99.12
2022-11-18T08:00:23.401Z,99.55
2022-11-18T08:01:23.453Z,99.99
2022-11-18T08:02:23.239Z,99.99
2022-11-18T08:03:23.174Z,99.99
2022-11-18T08:04:23.076Z,99.99
2022-11-18T08:05:23.175Z,99.99
2022-11-18T08:06:22.913Z,99.99
2022-11-18T08:07:22.872Z,99.99
2022-11-18T08:08:22.749Z,99.99
2022-11-18T08:09:22.663Z,99.99
2022-11-18T08:10:22.587Z,99.99
2022-11-18T08:11:23.165Z,99.99
2022-11-18T08:12:22.426Z,99.99
2022-11-18T08:13:22.350Z,99.99
2022-11-18T08:14:22.263Z,99.99
2022-11-18T08:15:22.173Z,99.99
2022-11-18T08:16:22.100Z,99.99
2022-11-18T08:17:22.010Z,99.99
2022-11-18T08:18:21.941Z,99.99
2022-11-18T08:19:21.868Z,99.99
2022-11-18T08:20:21.775Z,98.65
2022-11-18T08:21:21.691Z,98.98
2022-11-18T08:22:21.609Z,98.65
2022-11-18T08:23:21.521Z,98.65
2022-11-18T08:24:21.447Z,99.99
2022-11-18T08:25:21.360Z,99.99
2022-11-18T08:26:21.283Z,99.99
2022-11-18T08:27:21.198Z,99.99
2022-11-18T08:28:21.225Z,99.84
2022-11-18T08:29:24.993Z,99.99
2022-11-18T08:30:20.959Z,99.50
2022-11-18T08:31:20.873Z,99.31
2022-11-18T08:32:20.846Z,99.98
2022-11-18T08:33:20.708Z,99.88
2022-11-18T08:34:20.634Z,99.99
2022-11-18T08:35:20.628Z,99.99
2022-11-18T08:36:20.469Z,99.99
2022-11-18T08:37:20.381Z,99.99
2022-11-18T08:38:20.407Z,99.99
2022-11-18T08:39:20.281Z,99.99
2022-11-18T08:40:20.144Z,99.99
2022-11-18T08:41:20.054Z,99.99
2022-11-18T08:42:23.256Z,99.17
2022-11-18T08:43:20.144Z,98.22
2022-11-18T08:44:19.819Z,99.79
2022-11-18T08:45:19.732Z,99.99
2022-11-18T08:46:19.657Z,99.99
2022-11-18T08:47:19.567Z,99.99
2022-11-18T08:48:19.593Z,99.99
2022-11-18T08:49:19.727Z,99.99
2022-11-18T08:50:19.332Z,99.99
2022-11-18T08:51:19.260Z,99.99
2022-11-18T08:52:19.169Z,99.99
2022-11-18T08:53:19.078Z,99.99
2022-11-18T08:54:19.007Z,99.99
2022-11-18T08:55:18.918Z,99.99
2022-11-18T08:56:18.844Z,99.99
2022-11-18T08:57:18.753Z,99.99
2022-11-18T08:58:18.679Z,99.99
2022-11-18T08:59:19.038Z,99.99
2022-11-18T09:00:18.518Z,99.99
2022-11-18T09:01:18.493Z,99.99
2022-11-18T09:02:18.354Z,99.99
2022-11-18T09:03:18.269Z,99.99
2022-11-18T09:04:18.194Z,99.99
2022-11-18T09:05:18.120Z,99.99
2022-11-18T09:06:18.030Z,99.99
2022-11-18T09:07:18.016Z,99.99
2022-11-18T09:08:17.869Z,99.99
2022-11-18T09:09:17.778Z,99.99
2022-11-18T09:10:17.707Z,99.99
2022-11-18T09:11:17.620Z,99.99
2022-11-18T09:12:17.667Z,99.99
2022-11-18T09:13:44.765Z,99.99
2022-11-18T09:15:17.694Z,99.99
2022-11-18T09:16:17.220Z,99.99
2022-11-18T09:17:17.129Z,99.99
2022-11-18T09:18:17.057Z,99.99
2022-11-18T09:19:46.870Z,99.99
2022-11-18T09:20:16.893Z,99.99
2022-11-18T09:21:16.806Z,99.99
2022-11-18T09:22:16.932Z,99.99
2022-11-18T09:23:16.665Z,99.99
2022-11-18T09:24:17.068Z,99.99
2022-11-18T09:25:16.482Z,99.99
2022-11-18T09:26:16.407Z,99.99
2022-11-18T09:27:17.528Z,99.99
2022-11-18T09:28:16.296Z,99.99
2022-11-18T09:29:16.157Z,99.99
2022-11-18T09:30:16.384Z,99.99
2022-11-18T09:31:15.996Z,99.99
2022-11-18T09:32:15.920Z,99.99
2022-11-18T09:33:20.553Z,99.99
2022-11-18T09:34:16.233Z,99.99
2022-11-18T09:35:15.674Z,99.99
2022-11-18T09:36:15.600Z,99.99
2022-11-18T09:37:15.511Z,99.99
2022-11-18T09:38:15.438Z,99.99
2022-11-18T09:39:15.746Z,99.99
2022-11-18T09:40:15.276Z,99.99
2022-11-18T09:41:15.188Z,99.99
2022-11-18T09:42:15.114Z,99.99
2022-11-18T09:43:15.026Z,99.99
2022-11-18T09:44:14.955Z,99.99
2022-11-18T09:45:18.222Z,99.99
2022-11-18T09:46:14.792Z,99.99
2022-11-18T09:47:14.707Z,99.99
2022-11-18T09:48:14.633Z,99.99
2022-11-18T09:49:14.745Z,99.99
2022-11-18T09:50:47.097Z,99.99
2022-11-18T09:51:14.379Z,99.99
2022-11-18T09:52:14.308Z,99.99
2022-11-18T09:53:14.223Z,99.99
2022-11-18T09:54:14.146Z,99.99
2022-11-18T09:55:14.078Z,99.99
2022-11-18T09:56:14.078Z,99.99
2022-11-18T09:57:13.896Z,99.99
2022-11-18T09:58:13.823Z,99.99
2022-11-18T09:59:13.735Z,99.99
2022-11-18T10:00:13.662Z,99.99
2022-11-18T10:01:13.657Z,99.99
2022-11-18T10:02:13.573Z,99.99
2022-11-18T10:03:13.412Z,99.99
2022-11-18T10:04:13.339Z,99.99
2022-11-18T10:05:13.252Z,99.99
2022-11-18T10:06:13.179Z,99.99
2022-11-18T10:07:13.133Z,99.99
2022-11-18T10:08:13.019Z,99.99
2022-11-18T10:09:12.934Z,99.99
2022-11-18T10:10:12.856Z,99.99
2022-11-18T10:11:12.883Z,99.99
2022-11-18T10:12:12.695Z,99.99
2022-11-18T10:13:12.608Z,99.99
2022-11-18T10:14:12.534Z,99.99
2022-11-18T10:15:12.447Z,99.99
2022-11-18T10:16:12.376Z,99.99
2022-11-18T10:17:12.286Z,99.99
2022-11-18T10:18:12.212Z,99.99
2022-11-18T10:19:12.126Z,99.99
2022-11-18T10:20:12.053Z,99.99
2022-11-18T10:21:11.964Z,99.99
2022-11-18T10:22:19.513Z,99.99
2022-11-18T10:23:11.805Z,99.99
2022-11-18T10:24:11.729Z,99.99
2022-11-18T10:25:11.641Z,99.99
2022-11-18T10:26:11.820Z,99.99
2022-11-18T10:27:11.500Z,99.99
2022-11-18T10:28:11.406Z,99.99
2022-11-18T10:29:11.318Z,99.99
2022-11-18T10:30:11.254Z,99.99
2022-11-18T10:31:11.159Z,99.99
2022-11-18T10:32:11.087Z,99.99
2022-11-18T10:33:10.995Z,99.99
2022-11-18T10:34:10.936Z,99.99
2022-11-18T10:35:10.836Z,99.99
2022-11-18T10:36:10.763Z,99.99
2022-11-18T10:37:10.674Z,99.99
2022-11-18T10:38:10.602Z,99.99
2022-11-18T10:39:10.534Z,99.99
2022-11-18T10:40:10.450Z,99.99
2022-11-18T10:41:10.354Z,99.99
2022-11-18T10:42:10.281Z,99.99
2022-11-18T10:43:10.214Z,99.99
2022-11-18T10:44:12.262Z,99.99
2022-11-18T10:45:10.031Z,99.99
2022-11-18T10:46:09.959Z,99.99
2022-11-18T10:47:09.878Z,99.99
2022-11-18T10:48:09.799Z,99.99
2022-11-18T10:49:09.709Z,99.99
2022-11-18T10:50:09.637Z,99.99
2022-11-18T10:51:09.554Z,99.99
2022-11-18T10:52:09.479Z,99.99
2022-11-18T10:53:09.388Z,99.99
2022-11-18T10:54:09.316Z,99.99
2022-11-18T10:55:09.227Z,99.99
2022-11-18T10:56:09.157Z,99.99
2022-11-18T10:57:09.070Z,99.99
2022-11-18T10:58:09.058Z,99.99
2022-11-18T10:59:08.928Z,99.99
2022-11-18T11:00:08.837Z,99.99
2022-11-18T11:01:08.929Z,99.99
2022-11-18T11:02:10.091Z,99.99
2022-11-18T11:03:08.586Z,99.99
2022-11-18T11:04:08.513Z,99.99
2022-11-18T11:05:08.426Z,99.99
2022-11-18T11:06:08.354Z,99.99
2022-11-18T11:07:08.290Z,99.99
2022-11-18T11:08:35.046Z,99.99
2022-11-18T11:09:08.109Z,99.99
2022-11-18T11:10:08.031Z,99.99
2022-11-18T11:11:07.947Z,99.99
2022-11-18T11:12:07.872Z,99.99
2022-11-18T11:13:07.787Z,99.99
2022-11-18T11:14:07.703Z,99.99
2022-11-18T11:15:07.679Z,99.99
2022-11-18T11:16:07.545Z,99.99
2022-11-18T11:17:07.566Z,99.99
2022-11-18T11:18:07.382Z,99.99
2022-11-18T11:19:07.310Z,99.99
2022-11-18T11:20:07.220Z,99.99
2022-11-18T11:21:07.139Z,99.99
2022-11-18T11:22:07.063Z,99.99
2022-11-18T11:23:06.977Z,99.99
2022-11-18T11:24:06.957Z,99.99
2022-11-18T11:25:06.823Z,99.99
2022-11-18T11:29:06.494Z,99.99
2022-11-18T11:30:06.412Z,99.99
2022-11-18T11:31:06.351Z,99.99
2022-11-18T11:32:06.253Z,99.99
2022-11-18T11:33:06.175Z,99.99
2022-11-18T11:34:06.092Z,99.99
2022-11-18T11:35:06.013Z,99.99
2022-11-18T11:36:05.931Z,99.99
2022-11-18T11:37:05.852Z,99.99
2022-11-18T11:38:05.769Z,99.99
2022-11-18T11:39:05.690Z,99.99
2022-11-18T11:40:05.610Z,99.99
2022-11-18T11:41:05.542Z,99.99
2022-11-18T11:42:05.447Z,99.99
2022-11-18T11:43:05.519Z,99.99
2022-11-18T11:44:05.288Z,99.99
2022-11-18T11:45:05.219Z,99.99
2022-11-18T11:46:05.129Z,99.99
2022-11-18T11:47:05.070Z,99.99
2022-11-18T11:48:04.975Z,99.99
2022-11-18T11:49:04.904Z,99.99
2022-11-18T11:50:04.806Z,99.99
2022-11-18T11:51:05.536Z,99.99
2022-11-18T11:52:04.647Z,99.99
2022-11-18T11:53:04.566Z,99.99
2022-11-18T11:54:04.486Z,99.99
2022-11-18T11:55:04.407Z,99.99
2022-11-18T11:56:04.328Z,99.99
2022-11-18T11:57:04.250Z,99.99
2022-11-18T11:58:04.167Z,99.99
2022-11-18T11:59:04.086Z,99.99
2022-11-18T12:00:04.057Z,99.99
2022-11-18T12:01:03.926Z,99.99
2022-11-18T12:02:03.846Z,99.99
2022-11-18T12:03:03.865Z,99.99
2022-11-18T12:04:03.687Z,99.99
2022-11-18T12:05:03.707Z,99.99
2022-11-18T12:06:03.527Z,99.99
2022-11-18T12:07:03.486Z,99.99
2022-11-18T12:08:03.366Z,99.99
2022-11-18T12:09:03.291Z,99.99
2022-11-18T12:10:03.209Z,99.99
2022-11-18T12:11:03.133Z,99.99
2022-11-18T12:12:03.048Z,99.99
2022-11-18T12:13:02.970Z,99.99
2022-11-18T12:14:02.888Z,99.99
2022-11-18T12:15:02.814Z,99.99
2022-11-18T12:16:02.729Z,99.99
2022-11-18T12:17:02.651Z,99.99
2022-11-18T12:18:02.573Z,99.99
2022-11-18T12:19:02.515Z,99.99
2022-11-18T12:20:02.410Z,99.99
2022-11-18T12:21:02.336Z,99.99
2022-11-18T12:22:02.251Z,99.99
2022-11-18T12:23:02.172Z,99.99
2022-11-18T12:24:02.096Z,99.99
2022-11-18T12:25:02.017Z,99.99
2022-11-18T12:26:01.935Z,99.99
2022-11-18T12:27:01.872Z,99.99
2022-11-18T12:28:01.777Z,99.99
2022-11-18T12:29:01.703Z,99.99
2022-11-18T12:30:01.649Z,99.99
2022-11-18T12:31:01.552Z,99.99
2022-11-18T12:32:01.474Z,99.99
2022-11-18T12:33:01.385Z,99.99
2022-11-18T12:34:01.304Z,99.99
2022-11-18T12:35:01.248Z,99.99
2022-11-18T12:36:01.149Z,99.99
2022-11-18T12:37:01.069Z,99.99
2022-11-18T12:38:00.991Z,99.99
2022-11-18T12:39:00.911Z,99.99
2022-11-18T12:40:00.834Z,99.99
2022-11-18T12:41:00.760Z,99.99
2022-11-18T12:42:00.674Z,99.99
2022-11-18T12:43:00.594Z,99.99
2022-11-18T12:44:00.517Z,99.99
2022-11-18T12:45:00.439Z,99.99
2022-11-18T12:46:00.363Z,99.99
2022-11-18T12:47:00.283Z,99.99
2022-11-18T12:48:00.206Z,99.99
2022-11-18T12:49:00.126Z,99.99
2022-11-18T12:50:00.043Z,99.99
2022-11-18T12:50:59.988Z,99.99
2022-11-18T12:51:59.888Z,99.99
2022-11-18T12:52:59.809Z,99.99
2022-11-18T12:53:59.729Z,99.99
2022-11-18T12:54:59.652Z,99.99